METAR Data
IDs: Format: Raw Decoded Include TAF

Data at: 1406 UTC 12 Dec 2018

PABT 121353Z 03004KT 10SM FEW080 M29/M33 A2920 RMK AO2 SLP918 T12941328 PNO $
PABT 121253Z 03004KT 10SM FEW080 M29/M32 A2919 RMK AO2 SLP914 T12891322 PNO $
PABT 121153Z 36005KT 10SM FEW080 M28/M31 A2918 RMK AO2 SLP911 4/024 T12831311 11256 21300 51015 PNO $
PABT 121053Z 02006KT 10SM FEW080 M28/M31 A2917 RMK AO2 SLP906 T12781311 PNO $
PABT 120953Z 02005KT 10SM CLR M28/M32 A2916 RMK AO2 SLP901 T12831317 PNO $
PABT 120853Z 03004KT 10SM CLR M29/M32 A2914 RMK AO2 SLP895 T12891322 412111289 53019 PNO $
PABT 120753Z 03004KT 10SM CLR M27/M30 A2912 RMK AO2 SLP887 T12721300 PNO $
PABT 120653Z 01004KT 10SM CLR M28/M31 A2910 RMK AO2 SLP880 T12781306 PNO $
PABT 120553Z 01005KT 10SM CLR M26/M29 A2908 RMK AO2 SLP876 4/024 T12611294 11228 21278 51015 PNO $
PABT 120453Z 02003KT 10SM CLR M26/M29 A2907 RMK AO2 SLP870 T12561289 PNO $
PABT 120353Z 02003KT 10SM FEW120 M26/M29 A2906 RMK AO2 SLP866 T12611289 PNO $
PABT 120253Z 03005KT 10SM FEW120 M25/M28 A2904 RMK SLP858 T12501278 53009 PNO $ VIA AUTODIAL
PABT 120153Z 01005KT 10SM FEW120 M23/M27 A2903 RMK AO2 SLP854 T12331267 PNO $
PABT 120053Z 35006KT 10SM FEW060 M23/M27 A2902 RMK AO2 SLP851 T12281267 PNO $
PABT 112353Z COR 02006KT 10SM FEW060 M23/M27 A2901 RMK AO2 SLP848 4/024 T12331267 11222 21256 51013 PNO $
PABT 112253Z 35007KT 10SM FEW060 M24/M27 A2900 RMK AO2 SLP846 T12391267 PNO $
PABT 112153Z 04003KT 10SM FEW080 M23/M26 A2898 RMK AO2 SLP840 T12331261 PNO $
PABT 112053Z 35006KT 10SM FEW075 M23/M26 A2897 RMK AO2 SLP835 T12281261 52004 PNO $
PABT 111953Z 35007KT 10SM FEW075 M22/M26 A2896 RMK AO2 SLP834 T12221261 PNO $
PABT 111853Z 36004KT 10SM FEW120 M24/M27 A2896 RMK SLP834 T12441272 PNO $ VIA AUTODIAL
PABT 111753Z 02004KT 10SM CLR M25/M27 A2896 RMK AO2 SLP832 4/026 T12501272 11211 21250 53007 PNO $
PABT 111653Z 36005KT 10SM CLR M22/M24 A2894 RMK AO2 SLP825 T12171244 PNO $
PABT 111553Z 36007KT 10SM CLR M22/M25 A2894 RMK AO2 SLP825 T12221250 PNO $
PABT 111453Z 35007KT 10SM CLR M22/M26 A2894 RMK AO2 SLP824 T12221256 58009 PNO $
PABT 111353Z 33008KT 10SM CLR M22/M25 A2895 RMK AO2 SLP826 T12171250 PNO $
PABT 111253Z 35006KT 10SM CLR M23/M26 A2895 RMK AO2 SLP829 T12281256 PNO $
PABT 111153Z 36006KT 10SM CLR M23/M26 A2896 RMK AO2 SLP833 4/026 T12281261 11228 21244 56010 PNO $
PABT 111053Z 02006KT 10SM CLR M23/M27 A2896 RMK AO2 SLP833 T12331267 PNO $
PABT 110953Z 02006KT 10SM CLR M24/M27 A2898 RMK AO2 SLP840 T12391267 PNO $
PABT 110853Z 02007KT 10SM CLR M24/M27 A2899 RMK AO2 SLP843 T12391267 412061244 57019 PNO $
PABT 110753Z 01005KT 10SM CLR M24/M27 A2901 RMK AO2 SLP851 T12391267 PNO $
PABT 110653Z 32007KT 10SM CLR M24/M27 A2903 RMK AO2 SLP854 T12391267 PNO $
PABT 110553Z 35008KT 10SM CLR M23/M27 A2905 RMK AO2 SLP863 4/026 T12331267 11217 21244 58016 PNO $
PABT 110453Z 01007KT 10SM CLR M23/M27 A2907 RMK AO2 SLP870 T12331267 PNO $
PABT 110353Z 36005KT 10SM FEW090 M24/M27 A2908 RMK AO2 SLP873 T12441272 PNO $
PABT 110253Z 02005KT 10SM FEW090 M24/M27 A2910 RMK AO2 SLP880 T12391267 56014 PNO $